Latest Weather Observations for Norseman Airport

IDW60801

Issued at 11:43 am WST Thursday 13 December 2018 (issued every 10 minutes, with the page automatically refreshed every 10 minutes)

About weather observations | Map of weather stations | Latest weather observations for WA | Other Formats
Station Details ID: 012009 Name: NORSEMAN AERO Lat: -32.21 Lon: 121.75 Height: 262.5 m
Data from the previous 72 hours. | See also: Recent months at Norseman Airport
Date/Time
WST
Temp
°C
App
Temp
°C
Dew
Point
°C
Rel
Hum
%
Delta-T
°C
Wind Press
QNH
hPa
Press
MSL
hPa
Rain since
9am
mm
Dir  Spd
km/h
Gust
km/h
Spd
kts
Gust
kts
13/11:30am 23.2 18.7 4.2 29 9.4 ENE 17 28 9 15 1020.2 1019.1 0.0
13/11:00am 21.7 17.4 5.2 34 8.3 NE 17 30 9 16 1020.7 1019.6 0.0
13/10:30am 22.1 18.5 6.7 37 8.0 ENE 15 28 8 15 1021.0 1019.9 0.0
13/10:00am 19.3 15.2 6.1 42 6.6 ENE 17 30 9 16 1021.5 1020.4 0.0
13/09:30am 18.6 15.0 6.8 46 6.0 NE 15 30 8 16 1021.8 1020.7 0.0
13/09:00am 17.7 13.8 6.9 49 5.4 E 17 26 9 14 1022.2 1021.1 0.0
13/08:30am 16.3 11.9 7.5 56 4.5 E 20 30 11 16 1022.4 1021.3 0.0
13/08:00am 15.8 11.4 7.6 58 4.1 ENE 20 30 11 16 1022.5 1021.4 0.0
13/07:30am 14.5 10.8 7.8 64 3.4 ENE 17 30 9 16 1022.5 1021.4 0.0
13/07:00am 12.8 8.9 7.3 69 2.7 ENE 17 24 9 13 1022.6 1021.5 0.0
13/06:30am 11.7 8.7 7.6 76 2.0 ENE 13 17 7 9 1022.8 1021.8 0.0
13/06:00am 10.9 8.6 7.4 79 1.7 E 9 13 5 7 1022.4 1021.3 0.0
13/05:30am 8.5 6.7 7.1 91 0.7 ESE 6 7 3 4 1022.2 1021.1 0.0
13/05:00am 6.6 4.3 5.9 95 0.3 ESE 7 9 4 5 1021.8 1020.7 0.0
13/04:30am 6.5 4.4 5.8 95 0.3 E 6 7 3 4 1021.5 1020.4 0.0
13/04:00am 6.8 4.7 5.7 93 0.5 ESE 6 7 3 4 1021.5 1020.4 0.0
13/03:30am 7.5 5.3 6.1 91 0.6 E 7 9 4 5 1021.5 1020.4 0.0
13/03:00am 7.9 5.9 6.2 89 0.8 SE 6 7 3 4 1021.3 1020.2 0.0
13/02:30am 8.8 6.8 6.4 85 1.1 SE 6 6 3 3 1021.1 1020.0 0.0
13/02:00am 9.9 7.8 6.8 81 1.5 SE 7 9 4 5 1021.3 1020.2 0.0
13/01:30am 10.2 8.2 6.9 80 1.6 ESE 7 9 4 5 1021.1 1020.0 0.0
13/01:00am 10.9 9.0 6.8 76 2.0 ESE 6 7 3 4 1021.3 1020.2 0.0
13/12:30am 11.5 9.5 7.0 74 2.2 SE 7 11 4 6 1021.6 1020.5 0.0
13/12:00am 12.1 9.4 7.2 72 2.4 SE 11 15 6 8 1021.9 1020.8 0.0
 
Date/Time
WST
Temp
°C
App
Temp
°C
Dew
Point
°C
Rel
Hum
%
Delta-T
°C
Wind Press
QNH
hPa
Press
MSL
hPa
Rain since
9am
mm
Dir  Spd
km/h
Gust
km/h
Spd
kts
Gust
kts
12/11:30pm 12.6 9.9 7.3 70 2.6 SE 11 17 6 9 1022.0 1020.9 0.0
12/11:00pm 13.2 10.6 7.6 69 2.8 SE 11 19 6 10 1022.0 1020.9 0.0
12/10:30pm 13.8 10.1 8.0 68 2.9 SE 17 24 9 13 1021.9 1020.8 0.0
12/10:00pm 14.4 10.9 8.6 68 3.0 SE 17 26 9 14 1021.9 1020.8 0.0
12/09:30pm 15.2 11.7 8.9 66 3.3 SSE 17 24 9 13 1021.4 1020.3 0.0
12/09:00pm 15.9 10.8 9.1 64 3.5 SSE 26 35 14 19 1021.0 1019.9 0.0
12/08:30pm 16.8 13.0 9.7 63 3.8 SE 20 32 11 17 1020.5 1019.4 0.0
12/08:00pm 17.6 14.0 9.8 60 4.2 SSE 19 28 10 15 1020.1 1019.0 0.0
12/07:30pm 18.3 14.6 10.2 59 4.4 SSE 20 32 11 17 1019.6 1018.5 0.0
12/07:00pm 19.0 15.3 10.3 57 4.7 SSE 20 39 11 21 1019.0 1017.9 0.0
12/06:30pm 19.8 16.1 10.2 54 5.2 SSE 20 35 11 19 1018.6 1017.5 0.0
12/06:00pm 20.0 15.3 10.7 55 5.1 S 26 35 14 19 1018.2 1017.1 0.0
12/05:30pm 20.9 16.8 11.3 54 5.4 S 24 37 13 20 1017.9 1016.8 0.0
12/05:00pm 21.6 17.2 11.6 53 5.6 S 26 43 14 23 1017.4 1016.3 0.0
12/04:30pm 22.2 18.0 11.0 49 6.3 S 24 39 13 21 1017.1 1016.0 0.0
12/04:00pm 22.4 17.9 11.5 50 6.2 SSE 26 41 14 22 1016.8 1015.7 0.0
12/03:30pm 22.3 18.0 12.0 52 5.9 S 26 35 14 19 1016.8 1015.7 0.0
12/03:00pm 23.3 19.5 12.3 50 6.3 S 24 35 13 19 1016.7 1015.6 0.0
12/02:30pm 23.6 20.0 12.9 51 6.2 SSE 24 43 13 23 1016.6 1015.5 0.0
12/02:00pm 22.5 18.5 13.0 55 5.5 S 26 43 14 23 1016.5 1015.4 0.0
12/01:30pm 22.5 18.4 12.7 54 5.7 SSE 26 37 14 20 1016.5 1015.4 0.0
12/01:00pm 22.4 18.8 12.9 55 5.5 S 24 33 13 18 1016.5 1015.4 0.0
12/12:30pm 23.6 20.3 12.9 51 6.2 S 22 32 12 17 1016.4 1015.3 0.0
12/12:00pm 22.6 19.6 12.5 53 5.8 S 20 33 11 18 1016.5 1015.4 0.0
12/11:30am 22.3 18.5 12.5 53 5.6 S 24 33 13 18 1016.8 1015.7 0.0
12/11:00am 23.4 19.9 13.3 53 5.9 SSW 24 35 13 19 1016.7 1015.6 0.0
12/10:30am 21.9 19.3 11.9 53 5.7 S 17 30 9 16 1016.6 1015.5 0.0
12/10:00am 22.9 20.3 13.1 54 5.7 S 19 32 10 17 1016.5 1015.4 0.0
12/09:30am 20.6 16.5 12.8 61 4.5 SSW 26 37 14 20 1016.7 1015.6 0.0
12/09:00am 20.0 15.8 12.5 62 4.3 SSW 26 35 14 19 1016.6 1015.5 0.0
12/08:30am 20.0 16.4 13.2 65 3.9 SSW 24 35 13 19 1016.5 1015.4 0.0
12/08:00am 20.4 16.6 13.6 65 3.9 SSW 26 39 14 21 1016.2 1015.1 0.0
12/07:30am 18.8 14.4 13.0 69 3.3 SSW 28 35 15 19 1015.9 1014.7 0.0
12/07:00am 17.6 15.5 12.5 72 2.9 SSW 15 22 8 12 1015.7 1014.5 0.0
12/06:30am 16.0 14.3 12.4 79 2.0 SSW 13 15 7 8 1015.5 1014.3 0.0
12/06:00am 14.1 13.4 13.1 94 0.6 SW 9 11 5 6 1015.0 1013.9 0.0
12/05:30am 12.8 13.7 12.8 100 0.0 CALM 0 0 0 0 1014.8 1013.7 0.0
12/05:00am 12.1 12.0 12.1 100 0.0 SSW 4 7 2 4 1014.4 1013.3 0.0
12/04:30am 12.3 11.7 12.3 100 0.0 SSW 7 9 4 5 1014.0 1012.9 0.0
12/04:00am 12.2 11.7 12.0 99 0.1 SSW 6 9 3 5 1013.5 1012.4 0.0
12/03:30am 12.5 13.1 12.0 97 0.3 CALM 0 0 0 0 1013.2 1012.1 0.0
12/03:00am 12.8 12.1 12.0 95 0.4 SSW 7 11 4 6 1013.0 1011.9 0.0
12/02:30am 13.3 12.6 11.9 91 0.8 SW 7 9 4 5 1012.6 1011.4 0.0
12/02:00am 13.8 12.7 12.0 89 1.0 SSW 9 11 5 6 1012.6 1011.4 0.0
12/01:30am 14.2 13.7 12.1 87 1.1 S 6 6 3 3 1012.5 1011.3 0.0
12/01:00am 14.8 13.4 12.1 84 1.5 SSW 11 15 6 8 1012.6 1011.4 0.0
12/12:30am 15.2 14.2 12.2 82 1.7 S 9 13 5 7 1012.7 1011.5 0.0
12/12:00am 15.4 13.6 12.2 81 1.8 S 13 20 7 11 1012.8 1011.7 0.0
 
Date/Time
WST
Temp
°C
App
Temp
°C
Dew
Point
°C
Rel
Hum
%
Delta-T
°C
Wind Press
QNH
hPa
Press
MSL
hPa
Rain since
9am
mm
Dir  Spd
km/h
Gust
km/h
Spd
kts
Gust
kts
11/11:30pm 15.8 12.8 12.4 80 1.9 S 20 33 11 18 1012.7 1011.5 0.0
11/11:00pm 16.2 12.9 12.9 81 1.9 S 22 32 12 17 1012.4 1011.2 0.0
11/10:30pm 16.8 14.2 13.7 82 1.8 SSW 20 33 11 18 1012.2 1011.0 0.0
11/10:00pm 17.4 15.0 13.9 80 2.0 S 19 26 10 14 1011.9 1010.7 0.0
11/09:30pm 17.9 16.0 14.2 79 2.1 S 17 24 9 13 1011.4 1010.2 0.0
11/09:00pm 18.5 16.2 14.6 78 2.3 S 20 26 11 14 1011.2 1010.0 0.0
11/08:30pm 19.2 17.1 14.7 75 2.7 SSE 19 26 10 14 1010.9 1009.8 0.0
11/08:00pm 19.9 18.3 14.9 73 3.0 SE 17 24 9 13 1010.2 1009.1 0.0
11/07:30pm 20.2 19.0 15.0 72 3.1 SSE 15 22 8 12 1009.6 1008.5 0.0
11/07:00pm 20.8 17.9 15.1 70 3.4 S 24 39 13 21 1008.8 1007.6 0.0
11/06:30pm 22.3 18.4 15.4 65 4.2 SSE 30 43 16 23 1008.2 1007.0 0.0
11/06:00pm 23.6 19.4 15.6 61 4.9 S 32 48 17 26 1007.6 1006.4 0.0
11/05:54pm 23.9 20.0 15.4 59 5.2 S 30 48 16 26 1007.5 1006.3 0.0
11/05:30pm 25.8 21.8 16.1 55 6.0 S 32 41 17 22 1007.3 1006.1 0.0
11/05:00pm 27.2 25.6 16.5 52 6.7 SSE 20 30 11 16 1007.8 1006.6 0.0
11/04:30pm 27.4 24.7 16.7 52 6.7 S 26 39 14 21 1006.7 1005.6 0.0
11/04:00pm 27.8 24.4 16.7 50 7.0 SSE 30 41 16 22 1006.5 1005.4 0.0
11/03:30pm 28.0 24.8 17.2 52 6.8 SSE 30 43 16 23 1006.3 1005.2 0.0
11/03:00pm 29.3 27.0 17.5 49 7.6 SSE 26 39 14 21 1006.0 1004.8 0.0
11/02:30pm 29.7 28.0 18.2 50 7.4 SSE 24 37 13 20 1005.8 1004.6 0.0
11/02:00pm 29.8 28.7 18.6 51 7.3 SSE 22 39 12 21 1006.1 1005.0 0.0
11/01:30pm 30.3 30.2 18.7 50 7.6 SSW 17 24 9 13 1006.3 1005.2 0.0
11/01:00pm 29.5 29.1 18.9 53 6.9 S 19 26 10 14 1006.5 1005.4 0.0
11/12:30pm 28.9 28.3 18.9 54 6.5 S 20 32 11 17 1006.7 1005.6 0.0
11/12:00pm 28.6 28.4 19.8 59 5.8 SSW 20 30 11 16 1007.0 1005.9 0.0
11/11:30am 28.7 29.8 20.4 60 5.5 SW 15 24 8 13 1007.4 1006.2 0.0
11/11:00am 28.1 31.1 19.3 58 5.8 SW 2 15 1 8 1007.7 1006.5 0.0
11/10:30am 26.7 27.8 18.8 62 5.1 S 11 17 6 9 1008.0 1006.8 0.0
11/10:00am 25.5 26.8 19.2 68 4.1 WSW 11 17 6 9 1008.2 1007.0 0.0
11/09:30am 24.1 26.2 19.0 73 3.3 W 6 13 3 7 1008.6 1007.4 0.0
11/09:00am 23.0 25.4 18.7 77 2.7 WSW 4 11 2 6 1008.9 1007.7 10.6
11/08:30am 21.9 23.7 18.3 80 2.3 W 6 9 3 5 1009.3 1008.1 10.6
11/08:00am 20.5 22.0 17.5 83 1.9 SW 6 9 3 5 1009.2 1008.0 10.6
11/07:30am 20.2 22.2 20.0 99 0.1 SW 9 15 5 8 1009.4 1008.3 10.6
11/07:00am 19.0 19.7 18.8 99 0.1 SW 13 20 7 11 1009.6 1008.5 10.6
11/06:30am 18.7 20.1 18.7 100 0.0 WNW 9 13 5 7 1010.1 1009.0 9.4
11/06:00am 18.7 21.4 18.7 100 0.0 SSE 2 7 1 4 1009.2 1008.0 9.2
11/05:30am 17.6 20.2 17.6 100 0.0 CALM 0 0 0 0 1009.8 1008.7 9.2
11/05:00am 17.1 18.8 17.1 100 0.0 SW 4 13 2 7 1009.6 1008.5 9.2
11/04:30am 17.5 18.4 17.5 100 0.0 SSE 9 15 5 8 1009.3 1008.1 9.2
11/04:00am 17.1 18.2 17.1 100 0.0 SSW 7 9 4 5 1009.5 1008.4 9.2
11/03:30am 17.1 17.8 17.1 100 0.0 SW 9 13 5 7 1009.1 1007.9 9.2
11/03:00am 17.5 19.0 17.5 100 0.0 E 6 11 3 6 1008.4 1007.2 9.2
11/02:30am 17.7 19.6 17.7 100 0.0 ESE 4 7 2 4 1008.6 1007.4 9.2
11/02:00am 18.0 20.8 18.0 100 0.0 CALM 0 0 0 0 1009.0 1007.8 9.2
11/01:30am 18.3 19.4 18.1 99 0.1 NE 9 11 5 6 1009.0 1007.8 9.2
11/01:00am 18.5 19.6 18.0 97 0.3 ENE 9 15 5 8 1009.0 1007.8 9.2
11/12:30am 18.5 18.4 17.9 96 0.4 NE 15 20 8 11 1009.0 1007.8 9.2
11/12:00am 18.5 17.7 17.9 96 0.4 ENE 19 28 10 15 1009.1 1007.9 9.2
 
Date/Time
WST
Temp
°C
App
Temp
°C
Dew
Point
°C
Rel
Hum
%
Delta-T
°C
Wind Press
QNH
hPa
Press
MSL
hPa
Rain since
9am
mm
Dir  Spd
km/h
Gust
km/h
Spd
kts
Gust
kts
10/11:30pm 18.9 18.2 17.4 91 0.9 NNE 17 26 9 14 1009.0 1007.8 9.2
10/11:00pm 18.7 17.8 17.7 94 0.6 ENE 19 30 10 16 1008.3 1007.1 8.8
10/10:30pm 18.8 16.3 18.1 96 0.4 E 28 43 15 23 1008.0 1006.8 8.8
10/10:00pm 19.4 17.4 18.2 93 0.8 E 26 37 14 20 1008.9 1007.7 8.0
10/09:30pm 19.5 17.3 18.8 96 0.4 E 28 43 15 23 1008.7 1007.5 8.0
10/09:00pm 19.8 19.3 19.1 96 0.4 ESE 20 32 11 17 1008.6 1007.4 4.8
10/08:30pm 19.7 19.5 19.7 100 0.0 SSE 20 30 11 16 1008.4 1007.2 4.6
10/08:00pm 20.3 19.3 18.8 91 1.0 SSE 22 32 12 17 1009.1 1007.9 3.0
10/07:30pm 22.3 22.2 17.0 72 3.3 S 13 24 7 13 1008.4 1007.2 0.0
10/07:00pm 23.0 20.4 16.8 68 3.9 SSE 26 43 14 23 1006.5 1005.4 0.0
10/06:40pm 22.8 19.9 17.0 70 3.6 SSE 28 46 15 25 1006.2 1005.1 0.0
10/06:30pm 23.3 19.8 16.6 66 4.1 SSE 30 43 16 23 1006.2 1005.1 0.0
10/06:04pm 23.7 20.2 17.4 68 3.9 SSW 32 52 17 28 1006.1 1005.0 0.0
10/06:00pm 24.6 20.1 17.3 64 4.6 SW 37 54 20 29 1006.1 1005.0 0.0
10/05:51pm 26.4 23.3 16.6 55 6.1 SW 28 54 15 29 1005.8 1004.6 0.0
10/05:38pm 30.3 26.2 12.7 34 10.5 NW 26 41 14 22 1005.7 1004.5 0.0
10/05:30pm 35.4 30.3 13.0 26 13.7 N 32 44 17 24 1004.3 1003.1 0.0
10/05:00pm 35.7 30.4 12.6 25 14.1 NNE 32 43 17 23 1003.9 1002.7 0.0
10/04:30pm 35.5 31.3 12.5 25 14.0 N 26 48 14 26 1004.6 1003.4 0.0
10/04:16pm 36.4 31.7 11.9 23 14.8 NNE 28 46 15 25 1004.4 1003.2 0.0
10/04:00pm 36.0 31.2 12.9 25 14.2 NNE 30 43 16 23 1004.6 1003.4 0.0
10/03:30pm 36.3 32.3 13.1 25 14.3 NNE 26 37 14 20 1005.6 1004.4 0.0
10/03:00pm 36.3 32.0 13.1 25 14.3 NNE 28 37 15 20 1006.4 1005.3 0.0
10/02:30pm 35.3 31.1 12.3 25 13.9 N 26 37 14 20 1007.3 1006.1 0.0
10/02:00pm 35.3 32.6 12.9 26 13.7 N 19 28 10 15 1008.1 1006.9 0.0
10/01:30pm 35.0 31.4 13.2 27 13.4 N 24 39 13 21 1008.7 1007.5 0.0
10/01:16pm 35.1 31.2 13.3 27 13.4 N 26 46 14 25 1008.9 1007.7 0.0
10/01:00pm 34.7 30.7 13.0 27 13.3 N 26 41 14 22 1009.1 1007.9 0.0
10/12:30pm 35.1 32.3 13.3 27 13.4 N 20 37 11 20 1009.9 1008.8 0.0
10/12:00pm 33.8 30.3 13.3 29 12.5 N 24 35 13 19 1010.5 1009.4 0.0

Other Formats:

Comma delimited format used in spreadsheet applications
http://www.bom.gov.au/fwo/IDW60801/IDW60801.95642.axf

JavaScript Object Notation format (JSON) in row-major order
http://www.bom.gov.au/fwo/IDW60801/IDW60801.95642.json